sensor_id;sensor_type;location;lat;lon;timestamp;temperature;humidity
3756;DHT22;1893;52.526;13.360;2023-11-21T00:00:34;7.70;99.90
3756;DHT22;1893;52.526;13.360;2023-11-21T00:02:59;7.50;99.90
3756;DHT22;1893;52.526;13.360;2023-11-21T00:05:25;7.50;99.90
3756;DHT22;1893;52.526;13.360;2023-11-21T00:07:50;7.40;99.90
3756;DHT22;1893;52.526;13.360;2023-11-21T00:10:17;7.40;99.90
3756;DHT22;1893;52.526;13.360;2023-11-21T00:12:42;7.40;99.90
3756;DHT22;1893;52.526;13.360;2023-11-21T00:15:09;7.30;99.90
3756;DHT22;1893;52.526;13.360;2023-11-21T00:17:36;7.20;99.90
3756;DHT22;1893;52.526;13.360;2023-11-21T00:20:03;7.20;99.90
3756;DHT22;1893;52.526;13.360;2023-11-21T00:22:32;7.10;99.90
3756;DHT22;1893;52.526;13.360;2023-11-21T00:24:58;7.10;99.90
3756;DHT22;1893;52.526;13.360;2023-11-21T00:27:23;7.10;99.90
3756;DHT22;1893;52.526;13.360;2023-11-21T00:29:49;7.00;99.90
3756;DHT22;1893;52.526;13.360;2023-11-21T00:32:15;7.00;99.90
3756;DHT22;1893;52.526;13.360;2023-11-21T00:34:40;7.00;99.90
3756;DHT22;1893;52.526;13.360;2023-11-21T00:37:06;6.90;99.90
3756;DHT22;1893;52.526;13.360;2023-11-21T00:39:33;6.80;99.90
3756;DHT22;1893;52.526;13.360;2023-11-21T00:42:00;7.00;99.90
3756;DHT22;1893;52.526;13.360;2023-11-21T00:44:26;6.80;99.90
3756;DHT22;1893;52.526;13.360;2023-11-21T00:46:51;6.80;99.90
3756;DHT22;1893;52.526;13.360;2023-11-21T00:49:17;6.90;99.90
3756;DHT22;1893;52.526;13.360;2023-11-21T00:51:43;6.80;99.90
3756;DHT22;1893;52.526;13.360;2023-11-21T00:54:08;6.70;99.90
3756;DHT22;1893;52.526;13.360;2023-11-21T00:56:34;6.70;99.90
3756;DHT22;1893;52.526;13.360;2023-11-21T00:58:59;6.80;99.90
3756;DHT22;1893;52.526;13.360;2023-11-21T01:01:25;6.70;99.90
3756;DHT22;1893;52.526;13.360;2023-11-21T01:03:51;6.70;99.90
3756;DHT22;1893;52.526;13.360;2023-11-21T01:06:16;6.70;99.90
3756;DHT22;1893;52.526;13.360;2023-11-21T01:08:43;7.00;99.90
3756;DHT22;1893;52.526;13.360;2023-11-21T01:11:09;6.60;99.90
3756;DHT22;1893;52.526;13.360;2023-11-21T01:13:38;6.70;99.90
3756;DHT22;1893;52.526;13.360;2023-11-21T01:16:04;6.60;99.90
3756;DHT22;1893;52.526;13.360;2023-11-21T01:18:31;6.60;99.90
3756;DHT22;1893;52.526;13.360;2023-11-21T01:20:57;6.60;99.90
3756;DHT22;1893;52.526;13.360;2023-11-21T01:23:23;6.60;99.90
3756;DHT22;1893;52.526;13.360;2023-11-21T01:25:49;6.60;99.90
3756;DHT22;1893;52.526;13.360;2023-11-21T01:28:14;6.60;99.90
3756;DHT22;1893;52.526;13.360;2023-11-21T01:30:40;6.60;99.90
3756;DHT22;1893;52.526;13.360;2023-11-21T01:33:06;6.50;99.90
3756;DHT22;1893;52.526;13.360;2023-11-21T01:35:31;6.50;99.90
3756;DHT22;1893;52.526;13.360;2023-11-21T01:37:57;6.50;99.90
3756;DHT22;1893;52.526;13.360;2023-11-21T01:40:23;6.40;99.90
3756;DHT22;1893;52.526;13.360;2023-11-21T01:42:49;6.50;99.90
3756;DHT22;1893;52.526;13.360;2023-11-21T01:45:15;6.40;99.90
3756;DHT22;1893;52.526;13.360;2023-11-21T01:47:42;6.40;99.90
3756;DHT22;1893;52.526;13.360;2023-11-21T01:50:09;6.40;99.90
3756;DHT22;1893;52.526;13.360;2023-11-21T01:52:38;6.40;99.90
3756;DHT22;1893;52.526;13.360;2023-11-21T01:55:06;6.40;99.90
3756;DHT22;1893;52.526;13.360;2023-11-21T01:57:33;6.30;99.90
3756;DHT22;1893;52.526;13.360;2023-11-21T02:00:01;6.40;99.90
3756;DHT22;1893;52.526;13.360;2023-11-21T02:02:36;6.50;99.90
3756;DHT22;1893;52.526;13.360;2023-11-21T02:05:02;6.30;99.90
3756;DHT22;1893;52.526;13.360;2023-11-21T02:07:27;6.30;99.90
3756;DHT22;1893;52.526;13.360;2023-11-21T02:09:53;6.40;99.90
3756;DHT22;1893;52.526;13.360;2023-11-21T02:12:19;6.30;99.90
3756;DHT22;1893;52.526;13.360;2023-11-21T02:14:44;6.30;99.90
3756;DHT22;1893;52.526;13.360;2023-11-21T02:17:10;6.30;99.90
3756;DHT22;1893;52.526;13.360;2023-11-21T02:19:35;6.20;99.90
3756;DHT22;1893;52.526;13.360;2023-11-21T02:22:02;6.10;99.90
3756;DHT22;1893;52.526;13.360;2023-11-21T02:24:30;6.10;99.90
3756;DHT22;1893;52.526;13.360;2023-11-21T02:26:56;6.10;99.90
3756;DHT22;1893;52.526;13.360;2023-11-21T02:29:22;6.10;99.90
3756;DHT22;1893;52.526;13.360;2023-11-21T02:31:52;6.10;99.90
3756;DHT22;1893;52.526;13.360;2023-11-21T02:34:20;6.30;99.90
3756;DHT22;1893;52.526;13.360;2023-11-21T02:36:45;6.00;99.90
3756;DHT22;1893;52.526;13.360;2023-11-21T02:39:13;6.10;99.90
3756;DHT22;1893;52.526;13.360;2023-11-21T02:41:38;6.00;99.90
3756;DHT22;1893;52.526;13.360;2023-11-21T02:44:05;6.10;99.90
3756;DHT22;1893;52.526;13.360;2023-11-21T02:46:32;6.10;99.90
3756;DHT22;1893;52.526;13.360;2023-11-21T02:49:00;6.20;99.90
3756;DHT22;1893;52.526;13.360;2023-11-21T02:51:25;6.10;99.90
3756;DHT22;1893;52.526;13.360;2023-11-21T02:53:51;6.00;99.90
3756;DHT22;1893;52.526;13.360;2023-11-21T02:56:17;6.20;99.90
3756;DHT22;1893;52.526;13.360;2023-11-21T02:58:43;6.00;99.90
3756;DHT22;1893;52.526;13.360;2023-11-21T03:01:09;6.00;99.90
3756;DHT22;1893;52.526;13.360;2023-11-21T03:03:37;6.00;99.90
3756;DHT22;1893;52.526;13.360;2023-11-21T03:06:06;6.00;99.90
3756;DHT22;1893;52.526;13.360;2023-11-21T03:08:32;6.00;99.90
3756;DHT22;1893;52.526;13.360;2023-11-21T03:10:58;5.90;99.90
3756;DHT22;1893;52.526;13.360;2023-11-21T03:13:23;6.20;99.90
3756;DHT22;1893;52.526;13.360;2023-11-21T03:15:49;5.80;99.90
3756;DHT22;1893;52.526;13.360;2023-11-21T03:18:15;5.80;99.90
3756;DHT22;1893;52.526;13.360;2023-11-21T03:20:41;5.90;99.90
3756;DHT22;1893;52.526;13.360;2023-11-21T03:23:06;5.90;99.90
3756;DHT22;1893;52.526;13.360;2023-11-21T03:25:32;5.80;99.90
3756;DHT22;1893;52.526;13.360;2023-11-21T03:27:58;5.90;99.90
3756;DHT22;1893;52.526;13.360;2023-11-21T03:30:23;5.90;99.90
3756;DHT22;1893;52.526;13.360;2023-11-21T03:32:49;5.90;99.90
3756;DHT22;1893;52.526;13.360;2023-11-21T03:35:15;5.90;99.90
3756;DHT22;1893;52.526;13.360;2023-11-21T03:37:40;5.90;99.90
3756;DHT22;1893;52.526;13.360;2023-11-21T03:40:07;5.90;99.90
3756;DHT22;1893;52.526;13.360;2023-11-21T03:42:38;5.90;99.90
3756;DHT22;1893;52.526;13.360;2023-11-21T03:45:05;5.90;99.90
3756;DHT22;1893;52.526;13.360;2023-11-21T03:47:31;5.90;99.90
3756;DHT22;1893;52.526;13.360;2023-11-21T03:49:56;5.80;99.90
3756;DHT22;1893;52.526;13.360;2023-11-21T03:52:22;5.80;99.90
3756;DHT22;1893;52.526;13.360;2023-11-21T03:54:47;5.70;99.90
3756;DHT22;1893;52.526;13.360;2023-11-21T03:57:13;5.70;99.90
3756;DHT22;1893;52.526;13.360;2023-11-21T03:59:42;5.70;99.90
3756;DHT22;1893;52.526;13.360;2023-11-21T04:02:08;5.70;99.90
3756;DHT22;1893;52.526;13.360;2023-11-21T04:04:35;5.70;99.90
3756;DHT22;1893;52.526;13.360;2023-11-21T04:07:00;5.80;99.90
3756;DHT22;1893;52.526;13.360;2023-11-21T04:09:26;5.80;99.90
3756;DHT22;1893;52.526;13.360;2023-11-21T04:11:52;5.70;99.90
3756;DHT22;1893;52.526;13.360;2023-11-21T04:14:18;5.80;99.90
3756;DHT22;1893;52.526;13.360;2023-11-21T04:16:44;5.70;99.90
3756;DHT22;1893;52.526;13.360;2023-11-21T04:19:10;5.80;99.90
3756;DHT22;1893;52.526;13.360;2023-11-21T04:21:36;5.80;99.90
3756;DHT22;1893;52.526;13.360;2023-11-21T04:24:04;5.70;99.90
3756;DHT22;1893;52.526;13.360;2023-11-21T04:26:30;5.80;99.90
3756;DHT22;1893;52.526;13.360;2023-11-21T04:28:56;5.80;99.90
3756;DHT22;1893;52.526;13.360;2023-11-21T04:31:21;5.80;99.90
3756;DHT22;1893;52.526;13.360;2023-11-21T04:33:47;5.80;99.90
3756;DHT22;1893;52.526;13.360;2023-11-21T04:36:13;5.70;99.90
3756;DHT22;1893;52.526;13.360;2023-11-21T04:38:38;5.90;99.90
3756;DHT22;1893;52.526;13.360;2023-11-21T04:41:04;5.70;99.90
3756;DHT22;1893;52.526;13.360;2023-11-21T04:43:30;5.70;99.90
3756;DHT22;1893;52.526;13.360;2023-11-21T04:45:55;5.70;99.90
3756;DHT22;1893;52.526;13.360;2023-11-21T04:48:21;5.70;99.90
3756;DHT22;1893;52.526;13.360;2023-11-21T04:50:46;5.60;99.90
3756;DHT22;1893;52.526;13.360;2023-11-21T04:53:12;5.60;99.90
3756;DHT22;1893;52.526;13.360;2023-11-21T04:55:40;5.70;99.90
3756;DHT22;1893;52.526;13.360;2023-11-21T04:58:06;5.70;99.90
3756;DHT22;1893;52.526;13.360;2023-11-21T05:00:31;5.60;99.90
3756;DHT22;1893;52.526;13.360;2023-11-21T05:02:57;5.60;99.90
3756;DHT22;1893;52.526;13.360;2023-11-21T05:05:23;5.60;99.90
3756;DHT22;1893;52.526;13.360;2023-11-21T05:07:49;5.60;99.90
3756;DHT22;1893;52.526;13.360;2023-11-21T05:10:15;5.60;99.90
3756;DHT22;1893;52.526;13.360;2023-11-21T05:12:43;5.60;99.90
3756;DHT22;1893;52.526;13.360;2023-11-21T05:15:09;5.50;99.90
3756;DHT22;1893;52.526;13.360;2023-11-21T05:17:38;5.60;99.90
3756;DHT22;1893;52.526;13.360;2023-11-21T05:20:08;5.50;99.90
3756;DHT22;1893;52.526;13.360;2023-11-21T05:22:35;5.50;99.90
3756;DHT22;1893;52.526;13.360;2023-11-21T05:25:01;5.50;99.90
3756;DHT22;1893;52.526;13.360;2023-11-21T05:27:29;5.50;99.90
3756;DHT22;1893;52.526;13.360;2023-11-21T05:29:56;5.50;99.90
3756;DHT22;1893;52.526;13.360;2023-11-21T05:32:22;5.60;99.90
3756;DHT22;1893;52.526;13.360;2023-11-21T05:34:49;5.60;99.90
3756;DHT22;1893;52.526;13.360;2023-11-21T05:37:14;5.60;99.90
3756;DHT22;1893;52.526;13.360;2023-11-21T05:39:40;5.50;99.90
3756;DHT22;1893;52.526;13.360;2023-11-21T05:42:06;5.40;99.90
3756;DHT22;1893;52.526;13.360;2023-11-21T05:44:31;5.40;99.90
3756;DHT22;1893;52.526;13.360;2023-11-21T05:46:57;5.40;99.90
3756;DHT22;1893;52.526;13.360;2023-11-21T05:49:24;5.30;99.90
3756;DHT22;1893;52.526;13.360;2023-11-21T05:51:53;5.30;99.90
3756;DHT22;1893;52.526;13.360;2023-11-21T05:54:19;5.30;99.90
3756;DHT22;1893;52.526;13.360;2023-11-21T05:56:45;5.30;99.90
3756;DHT22;1893;52.526;13.360;2023-11-21T05:59:12;5.40;99.90
3756;DHT22;1893;52.526;13.360;2023-11-21T06:01:38;5.40;99.90
3756;DHT22;1893;52.526;13.360;2023-11-21T06:04:04;5.40;99.90
3756;DHT22;1893;52.526;13.360;2023-11-21T06:06:30;5.30;99.90
3756;DHT22;1893;52.526;13.360;2023-11-21T06:08:57;5.30;99.90
3756;DHT22;1893;52.526;13.360;2023-11-21T06:11:22;5.30;99.90
3756;DHT22;1893;52.526;13.360;2023-11-21T06:13:49;5.20;99.90
3756;DHT22;1893;52.526;13.360;2023-11-21T06:16:15;5.30;99.90
3756;DHT22;1893;52.526;13.360;2023-11-21T06:18:43;5.30;99.90
3756;DHT22;1893;52.526;13.360;2023-11-21T06:21:12;5.20;99.90
3756;DHT22;1893;52.526;13.360;2023-11-21T06:23:39;5.20;99.90
3756;DHT22;1893;52.526;13.360;2023-11-21T06:26:05;5.20;99.90
3756;DHT22;1893;52.526;13.360;2023-11-21T06:28:31;5.20;99.90
3756;DHT22;1893;52.526;13.360;2023-11-21T06:30:57;5.20;99.90
3756;DHT22;1893;52.526;13.360;2023-11-21T06:33:33;5.10;99.90
3756;DHT22;1893;52.526;13.360;2023-11-21T06:35:59;5.20;99.90
3756;DHT22;1893;52.526;13.360;2023-11-21T06:38:25;5.20;99.90
3756;DHT22;1893;52.526;13.360;2023-11-21T06:40:53;5.10;99.90
3756;DHT22;1893;52.526;13.360;2023-11-21T06:43:20;5.30;99.90
3756;DHT22;1893;52.526;13.360;2023-11-21T06:45:47;5.30;99.90
3756;DHT22;1893;52.526;13.360;2023-11-21T06:48:13;5.10;99.90
3756;DHT22;1893;52.526;13.360;2023-11-21T06:50:38;5.10;99.90
3756;DHT22;1893;52.526;13.360;2023-11-21T06:53:04;5.30;99.90
3756;DHT22;1893;52.526;13.360;2023-11-21T06:55:32;5.10;99.90
3756;DHT22;1893;52.526;13.360;2023-11-21T06:57:58;5.10;99.90
3756;DHT22;1893;52.526;13.360;2023-11-21T07:00:25;5.10;99.90
3756;DHT22;1893;52.526;13.360;2023-11-21T07:02:53;5.10;99.90
3756;DHT22;1893;52.526;13.360;2023-11-21T07:05:20;5.10;99.90
3756;DHT22;1893;52.526;13.360;2023-11-21T07:07:47;5.10;99.90
3756;DHT22;1893;52.526;13.360;2023-11-21T07:10:13;5.10;99.90
3756;DHT22;1893;52.526;13.360;2023-11-21T07:12:39;5.20;99.90
3756;DHT22;1893;52.526;13.360;2023-11-21T07:15:06;5.00;99.90
3756;DHT22;1893;52.526;13.360;2023-11-21T07:17:37;5.00;99.90
3756;DHT22;1893;52.526;13.360;2023-11-21T07:20:03;5.00;99.90
3756;DHT22;1893;52.526;13.360;2023-11-21T07:22:28;5.10;99.90
3756;DHT22;1893;52.526;13.360;2023-11-21T07:24:55;5.10;99.90
3756;DHT22;1893;52.526;13.360;2023-11-21T07:27:22;5.10;99.90
3756;DHT22;1893;52.526;13.360;2023-11-21T07:29:47;5.10;99.90
3756;DHT22;1893;52.526;13.360;2023-11-21T07:32:14;5.10;99.90
3756;DHT22;1893;52.526;13.360;2023-11-21T07:34:40;5.00;99.90
3756;DHT22;1893;52.526;13.360;2023-11-21T07:37:07;5.10;99.90
3756;DHT22;1893;52.526;13.360;2023-11-21T07:39:34;5.10;99.90
3756;DHT22;1893;52.526;13.360;2023-11-21T07:42:01;5.10;99.90
3756;DHT22;1893;52.526;13.360;2023-11-21T07:44:28;5.10;99.90
3756;DHT22;1893;52.526;13.360;2023-11-21T07:46:54;5.20;99.90
3756;DHT22;1893;52.526;13.360;2023-11-21T07:49:23;5.10;99.90
3756;DHT22;1893;52.526;13.360;2023-11-21T07:51:49;5.10;99.90
3756;DHT22;1893;52.526;13.360;2023-11-21T07:54:16;5.20;99.90
3756;DHT22;1893;52.526;13.360;2023-11-21T07:56:41;5.10;99.90
3756;DHT22;1893;52.526;13.360;2023-11-21T07:59:07;5.20;99.90
3756;DHT22;1893;52.526;13.360;2023-11-21T08:01:33;5.10;99.90
3756;DHT22;1893;52.526;13.360;2023-11-21T08:03:59;5.10;99.90
3756;DHT22;1893;52.526;13.360;2023-11-21T08:06:29;5.20;99.90
3756;DHT22;1893;52.526;13.360;2023-11-21T08:08:56;5.10;99.90
3756;DHT22;1893;52.526;13.360;2023-11-21T08:11:22;5.20;99.90
3756;DHT22;1893;52.526;13.360;2023-11-21T08:13:47;5.20;99.90
3756;DHT22;1893;52.526;13.360;2023-11-21T08:16:13;5.10;99.90
3756;DHT22;1893;52.526;13.360;2023-11-21T08:18:38;5.10;99.90
3756;DHT22;1893;52.526;13.360;2023-11-21T08:21:05;5.10;99.90
3756;DHT22;1893;52.526;13.360;2023-11-21T08:23:31;5.10;99.90
3756;DHT22;1893;52.526;13.360;2023-11-21T08:25:57;5.10;99.90
3756;DHT22;1893;52.526;13.360;2023-11-21T08:28:22;5.00;99.90
3756;DHT22;1893;52.526;13.360;2023-11-21T08:30:51;5.20;99.90
3756;DHT22;1893;52.526;13.360;2023-11-21T08:33:17;5.30;99.90
3756;DHT22;1893;52.526;13.360;2023-11-21T08:35:43;5.10;99.90
3756;DHT22;1893;52.526;13.360;2023-11-21T08:38:08;5.10;99.90
3756;DHT22;1893;52.526;13.360;2023-11-21T08:40:35;5.10;99.90
3756;DHT22;1893;52.526;13.360;2023-11-21T08:43:01;5.10;99.90
3756;DHT22;1893;52.526;13.360;2023-11-21T08:45:30;5.00;99.90
3756;DHT22;1893;52.526;13.360;2023-11-21T08:47:55;5.10;99.90
3756;DHT22;1893;52.526;13.360;2023-11-21T08:50:21;5.00;99.90
3756;DHT22;1893;52.526;13.360;2023-11-21T08:52:47;5.10;99.90
3756;DHT22;1893;52.526;13.360;2023-11-21T08:55:13;5.10;99.90
3756;DHT22;1893;52.526;13.360;2023-11-21T08:57:40;5.10;99.90
3756;DHT22;1893;52.526;13.360;2023-11-21T09:00:07;5.20;99.90
3756;DHT22;1893;52.526;13.360;2023-11-21T09:02:40;5.20;99.90
3756;DHT22;1893;52.526;13.360;2023-11-21T09:05:09;5.00;99.90
3756;DHT22;1893;52.526;13.360;2023-11-21T09:07:35;5.20;99.90
3756;DHT22;1893;52.526;13.360;2023-11-21T09:10:04;5.00;99.90
3756;DHT22;1893;52.526;13.360;2023-11-21T09:12:33;4.90;99.90
3756;DHT22;1893;52.526;13.360;2023-11-21T09:15:03;5.10;99.90
3756;DHT22;1893;52.526;13.360;2023-11-21T09:17:30;5.00;99.90
3756;DHT22;1893;52.526;13.360;2023-11-21T09:19:55;5.00;99.90
3756;DHT22;1893;52.526;13.360;2023-11-21T09:22:22;4.90;99.90
3756;DHT22;1893;52.526;13.360;2023-11-21T09:24:50;4.90;99.90
3756;DHT22;1893;52.526;13.360;2023-11-21T09:27:16;5.10;99.90
3756;DHT22;1893;52.526;13.360;2023-11-21T09:29:43;5.20;99.90
3756;DHT22;1893;52.526;13.360;2023-11-21T09:32:08;5.20;99.90
3756;DHT22;1893;52.526;13.360;2023-11-21T09:34:38;5.20;99.90
3756;DHT22;1893;52.526;13.360;2023-11-21T09:37:04;5.20;99.90
3756;DHT22;1893;52.526;13.360;2023-11-21T09:39:32;5.30;99.90
3756;DHT22;1893;52.526;13.360;2023-11-21T09:47:23;5.30;99.90
3756;DHT22;1893;52.526;13.360;2023-11-21T09:49:48;5.20;99.90
3756;DHT22;1893;52.526;13.360;2023-11-21T09:52:26;5.20;99.90
3756;DHT22;1893;52.526;13.360;2023-11-21T09:54:54;5.00;99.90
3756;DHT22;1893;52.526;13.360;2023-11-21T09:57:20;5.00;99.90
3756;DHT22;1893;52.526;13.360;2023-11-21T09:59:53;5.00;99.90
3756;DHT22;1893;52.526;13.360;2023-11-21T10:02:33;5.00;99.90
3756;DHT22;1893;52.526;13.360;2023-11-21T10:05:01;4.90;99.90
3756;DHT22;1893;52.526;13.360;2023-11-21T10:07:30;5.00;99.90
3756;DHT22;1893;52.526;13.360;2023-11-21T10:09:57;5.00;99.90
3756;DHT22;1893;52.526;13.360;2023-11-21T10:12:24;5.00;99.90
3756;DHT22;1893;52.526;13.360;2023-11-21T10:14:52;5.00;99.90
3756;DHT22;1893;52.526;13.360;2023-11-21T10:17:20;5.00;99.90
3756;DHT22;1893;52.526;13.360;2023-11-21T10:19:48;5.00;99.90
3756;DHT22;1893;52.526;13.360;2023-11-21T10:22:15;4.90;99.90
3756;DHT22;1893;52.526;13.360;2023-11-21T10:24:41;4.90;99.90
3756;DHT22;1893;52.526;13.360;2023-11-21T10:27:09;4.90;99.90
3756;DHT22;1893;52.526;13.360;2023-11-21T10:29:35;4.90;99.90
3756;DHT22;1893;52.526;13.360;2023-11-21T10:32:02;4.90;99.90
3756;DHT22;1893;52.526;13.360;2023-11-21T10:34:28;4.90;99.90
3756;DHT22;1893;52.526;13.360;2023-11-21T10:36:55;4.80;99.90
3756;DHT22;1893;52.526;13.360;2023-11-21T10:39:23;4.80;99.90
3756;DHT22;1893;52.526;13.360;2023-11-21T10:41:50;4.80;99.90
3756;DHT22;1893;52.526;13.360;2023-11-21T10:44:19;4.80;99.90
3756;DHT22;1893;52.526;13.360;2023-11-21T10:46:54;4.70;99.90
3756;DHT22;1893;52.526;13.360;2023-11-21T10:49:25;4.60;99.90
3756;DHT22;1893;52.526;13.360;2023-11-21T10:51:51;4.50;99.90
3756;DHT22;1893;52.526;13.360;2023-11-21T10:54:22;4.60;99.90
3756;DHT22;1893;52.526;13.360;2023-11-21T10:56:56;4.60;99.90
3756;DHT22;1893;52.526;13.360;2023-11-21T10:59:23;4.60;99.90
3756;DHT22;1893;52.526;13.360;2023-11-21T11:01:51;4.60;99.90
3756;DHT22;1893;52.526;13.360;2023-11-21T11:04:19;4.60;99.90
3756;DHT22;1893;52.526;13.360;2023-11-21T11:06:47;4.60;99.90
3756;DHT22;1893;52.526;13.360;2023-11-21T11:09:17;4.60;99.90
3756;DHT22;1893;52.526;13.360;2023-11-21T11:11:43;4.60;99.90
3756;DHT22;1893;52.526;13.360;2023-11-21T11:14:12;4.50;99.90
3756;DHT22;1893;52.526;13.360;2023-11-21T11:16:39;4.50;99.90
3756;DHT22;1893;52.526;13.360;2023-11-21T11:19:09;4.30;99.90
3756;DHT22;1893;52.526;13.360;2023-11-21T11:22:12;4.40;99.90
3756;DHT22;1893;52.526;13.360;2023-11-21T11:24:59;4.30;99.90
3756;DHT22;1893;52.526;13.360;2023-11-21T11:27:34;4.20;99.90
3756;DHT22;1893;52.526;13.360;2023-11-21T11:32:54;4.30;99.90
3756;DHT22;1893;52.526;13.360;2023-11-21T11:35:38;4.20;99.90
3756;DHT22;1893;52.526;13.360;2023-11-21T11:38:07;4.40;99.90
3756;DHT22;1893;52.526;13.360;2023-11-21T11:40:45;4.30;99.90
3756;DHT22;1893;52.526;13.360;2023-11-21T11:43:11;4.40;99.90
3756;DHT22;1893;52.526;13.360;2023-11-21T11:45:37;4.20;99.90
3756;DHT22;1893;52.526;13.360;2023-11-21T11:48:11;4.20;99.90
3756;DHT22;1893;52.526;13.360;2023-11-21T11:51:00;4.20;99.90
3756;DHT22;1893;52.526;13.360;2023-11-21T11:53:33;4.20;99.90
3756;DHT22;1893;52.526;13.360;2023-11-21T11:58:55;4.20;99.90
3756;DHT22;1893;52.526;13.360;2023-11-21T12:01:22;4.30;99.90
3756;DHT22;1893;52.526;13.360;2023-11-21T12:07:05;4.40;99.90
3756;DHT22;1893;52.526;13.360;2023-11-21T12:09:31;4.40;99.90
3756;DHT22;1893;52.526;13.360;2023-11-21T12:11:59;4.40;99.90
3756;DHT22;1893;52.526;13.360;2023-11-21T12:14:25;4.40;99.90
3756;DHT22;1893;52.526;13.360;2023-11-21T12:16:51;4.30;99.90
3756;DHT22;1893;52.526;13.360;2023-11-21T12:19:17;4.50;99.90
3756;DHT22;1893;52.526;13.360;2023-11-21T12:21:43;4.30;99.90
3756;DHT22;1893;52.526;13.360;2023-11-21T12:24:14;4.40;99.90
3756;DHT22;1893;52.526;13.360;2023-11-21T12:26:41;4.30;99.90
3756;DHT22;1893;52.526;13.360;2023-11-21T12:29:08;4.30;99.90
3756;DHT22;1893;52.526;13.360;2023-11-21T12:31:34;4.20;99.90
3756;DHT22;1893;52.526;13.360;2023-11-21T12:34:03;4.30;99.90
3756;DHT22;1893;52.526;13.360;2023-11-21T12:36:29;4.20;99.90
3756;DHT22;1893;52.526;13.360;2023-11-21T12:38:56;4.30;99.90
3756;DHT22;1893;52.526;13.360;2023-11-21T12:41:22;4.30;99.90
3756;DHT22;1893;52.526;13.360;2023-11-21T12:43:47;4.20;99.90
3756;DHT22;1893;52.526;13.360;2023-11-21T12:46:14;4.40;99.90
3756;DHT22;1893;52.526;13.360;2023-11-21T12:48:44;4.20;99.90
3756;DHT22;1893;52.526;13.360;2023-11-21T12:51:12;4.40;99.90
3756;DHT22;1893;52.526;13.360;2023-11-21T12:53:39;4.50;99.90
3756;DHT22;1893;52.526;13.360;2023-11-21T12:56:12;4.60;99.90
3756;DHT22;1893;52.526;13.360;2023-11-21T12:58:39;4.60;99.90
3756;DHT22;1893;52.526;13.360;2023-11-21T13:01:06;4.70;99.90
3756;DHT22;1893;52.526;13.360;2023-11-21T13:03:37;4.80;99.90
3756;DHT22;1893;52.526;13.360;2023-11-21T13:06:04;4.70;99.90
3756;DHT22;1893;52.526;13.360;2023-11-21T13:08:30;4.60;99.90
3756;DHT22;1893;52.526;13.360;2023-11-21T13:10:58;4.50;99.90
3756;DHT22;1893;52.526;13.360;2023-11-21T13:13:26;4.40;99.90
3756;DHT22;1893;52.526;13.360;2023-11-21T13:15:56;4.40;99.90
3756;DHT22;1893;52.526;13.360;2023-11-21T13:18:23;4.30;99.90
3756;DHT22;1893;52.526;13.360;2023-11-21T13:20:49;4.20;99.90
3756;DHT22;1893;52.526;13.360;2023-11-21T13:23:16;4.30;99.90
3756;DHT22;1893;52.526;13.360;2023-11-21T13:25:42;4.30;99.90
3756;DHT22;1893;52.526;13.360;2023-11-21T13:28:08;4.20;99.90
3756;DHT22;1893;52.526;13.360;2023-11-21T13:30:35;4.30;99.90
3756;DHT22;1893;52.526;13.360;2023-11-21T13:33:04;4.30;99.90
3756;DHT22;1893;52.526;13.360;2023-11-21T13:35:39;4.30;99.90
3756;DHT22;1893;52.526;13.360;2023-11-21T13:38:11;4.20;99.90
3756;DHT22;1893;52.526;13.360;2023-11-21T13:40:38;4.20;99.90
3756;DHT22;1893;52.526;13.360;2023-11-21T13:43:12;4.00;99.90
3756;DHT22;1893;52.526;13.360;2023-11-21T13:45:42;4.00;99.90
3756;DHT22;1893;52.526;13.360;2023-11-21T13:48:10;3.90;99.90
3756;DHT22;1893;52.526;13.360;2023-11-21T13:50:40;3.80;99.90
3756;DHT22;1893;52.526;13.360;2023-11-21T13:53:14;3.80;99.90
3756;DHT22;1893;52.526;13.360;2023-11-21T13:55:52;3.90;99.90
3756;DHT22;1893;52.526;13.360;2023-11-21T13:58:23;3.80;99.90
3756;DHT22;1893;52.526;13.360;2023-11-21T14:01:00;3.80;99.90
3756;DHT22;1893;52.526;13.360;2023-11-21T14:03:31;3.80;99.90
3756;DHT22;1893;52.526;13.360;2023-11-21T14:06:10;3.70;99.90
3756;DHT22;1893;52.526;13.360;2023-11-21T14:08:40;3.70;99.90
3756;DHT22;1893;52.526;13.360;2023-11-21T14:11:07;3.80;99.90
3756;DHT22;1893;52.526;13.360;2023-11-21T14:13:32;3.60;99.90
3756;DHT22;1893;52.526;13.360;2023-11-21T14:15:59;3.60;99.90
3756;DHT22;1893;52.526;13.360;2023-11-21T14:18:28;3.50;99.90
3756;DHT22;1893;52.526;13.360;2023-11-21T14:21:07;3.50;99.90
3756;DHT22;1893;52.526;13.360;2023-11-21T14:23:35;3.50;99.90
3756;DHT22;1893;52.526;13.360;2023-11-21T14:26:03;3.40;99.90
3756;DHT22;1893;52.526;13.360;2023-11-21T14:28:31;3.40;99.90
3756;DHT22;1893;52.526;13.360;2023-11-21T14:30:57;3.40;99.90
3756;DHT22;1893;52.526;13.360;2023-11-21T14:33:22;3.30;99.90
3756;DHT22;1893;52.526;13.360;2023-11-21T14:35:48;3.30;99.90
3756;DHT22;1893;52.526;13.360;2023-11-21T14:38:14;3.30;99.90
3756;DHT22;1893;52.526;13.360;2023-11-21T14:40:40;3.30;99.90
3756;DHT22;1893;52.526;13.360;2023-11-21T14:43:06;3.30;99.90
3756;DHT22;1893;52.526;13.360;2023-11-21T14:45:32;3.30;99.90
3756;DHT22;1893;52.526;13.360;2023-11-21T14:47:59;3.10;99.90
3756;DHT22;1893;52.526;13.360;2023-11-21T14:50:35;3.10;99.90
3756;DHT22;1893;52.526;13.360;2023-11-21T14:53:03;3.20;99.90
3756;DHT22;1893;52.526;13.360;2023-11-21T14:55:34;3.10;99.90
3756;DHT22;1893;52.526;13.360;2023-11-21T14:58:18;3.10;99.90
3756;DHT22;1893;52.526;13.360;2023-11-21T15:00:57;3.20;99.90
3756;DHT22;1893;52.526;13.360;2023-11-21T15:03:24;3.10;99.90
3756;DHT22;1893;52.526;13.360;2023-11-21T15:05:57;3.00;99.90
3756;DHT22;1893;52.526;13.360;2023-11-21T15:08:23;3.00;99.90
3756;DHT22;1893;52.526;13.360;2023-11-21T15:10:52;2.90;99.90
3756;DHT22;1893;52.526;13.360;2023-11-21T15:13:20;3.00;99.90
3756;DHT22;1893;52.526;13.360;2023-11-21T15:15:47;3.10;99.90
3756;DHT22;1893;52.526;13.360;2023-11-21T15:18:12;3.00;99.90
3756;DHT22;1893;52.526;13.360;2023-11-21T15:20:42;3.00;99.90
3756;DHT22;1893;52.526;13.360;2023-11-21T15:23:09;3.00;99.90
3756;DHT22;1893;52.526;13.360;2023-11-21T15:25:34;3.00;99.90
3756;DHT22;1893;52.526;13.360;2023-11-21T15:28:01;3.00;99.90
3756;DHT22;1893;52.526;13.360;2023-11-21T15:30:28;3.10;99.90
3756;DHT22;1893;52.526;13.360;2023-11-21T15:32:57;3.00;99.90
3756;DHT22;1893;52.526;13.360;2023-11-21T15:35:23;2.90;99.90
3756;DHT22;1893;52.526;13.360;2023-11-21T15:37:49;3.00;99.90
3756;DHT22;1893;52.526;13.360;2023-11-21T15:40:14;2.90;99.90
3756;DHT22;1893;52.526;13.360;2023-11-21T15:42:42;2.90;99.90
3756;DHT22;1893;52.526;13.360;2023-11-21T15:45:08;3.00;99.90
3756;DHT22;1893;52.526;13.360;2023-11-21T15:47:34;3.00;99.90
3756;DHT22;1893;52.526;13.360;2023-11-21T15:50:01;3.00;99.90
3756;DHT22;1893;52.526;13.360;2023-11-21T15:52:26;2.90;99.90
3756;DHT22;1893;52.526;13.360;2023-11-21T15:54:54;2.90;99.90
3756;DHT22;1893;52.526;13.360;2023-11-21T15:57:19;2.90;99.90
3756;DHT22;1893;52.526;13.360;2023-11-21T15:59:47;3.00;99.90
3756;DHT22;1893;52.526;13.360;2023-11-21T16:02:13;3.10;99.90
3756;DHT22;1893;52.526;13.360;2023-11-21T16:04:41;2.90;99.90
3756;DHT22;1893;52.526;13.360;2023-11-21T16:07:10;2.90;99.90
3756;DHT22;1893;52.526;13.360;2023-11-21T16:09:36;2.90;99.90
3756;DHT22;1893;52.526;13.360;2023-11-21T16:12:05;2.90;99.90
3756;DHT22;1893;52.526;13.360;2023-11-21T16:14:32;2.90;99.90
3756;DHT22;1893;52.526;13.360;2023-11-21T16:17:04;3.00;99.90